Aviation Digital Data Service (ADDS)

Output produced by METARs form (0111 UTC 17 July 2019)
found at http://www.aviationweather.gov/metar/data/
 
RJSK 170100Z 22003KT 160V290 9999 -SHRA FEW015 SCT025 BKN030 24/20 Q1014
TAF RJSK 162307Z 1700/1806 13004KT 9999 FEW020 BKN030 
     BECMG 1701/1703 28010KT 
     BECMG 1712/1715 13004KT 
     TEMPO 1718/1800 1500 BR FEW001 BKN003 
     BECMG 1800/1803 26006KT
       
RJKA 170100Z 08008KT 9999 FEW010 30/27 Q1009
RJSA 170100Z 06004KT 020V090 9999 PRFG FEW001 BKN005 BKN030 20/18 Q1014
TAF RJSA 162310Z 1700/1806 02008KT 0800 FG SCT001 BKN002 
     BECMG 1701/1703 9999 NSW FEW010 SCT030 
     TEMPO 1712/1715 1500 BR FEW001 BKN003 
     BECMG 1712/1715 24005KT 
     BECMG 1803/1806 02006KT
       
RJEC 170100Z 18011KT 150V220 9999 FEW030 BKN/// 27/17 Q1014
TAF RJEC 162308Z 1700/1806 18010KT 9999 FEW015 BKN025 
     TEMPO 1703/1709 FEW015 BKN025 FEW025CB
       
RJFE 170100Z 07007KT 040V130 3500 -SHRA BR FEW002 SCT004 BKN006 24/23 Q1011
RJFF 170100Z 06003KT 340V110 9999 FEW025 SCT/// 29/23 Q1011 BECMG 15006KT
TAF RJFF 162313Z 1700/1806 15006KT 9999 FEW010 SCT020 
     BECMG 1704/1706 32007KT 
     TEMPO 1704/1707 4000 -TSRA BR FEW010 SCT015 FEW020CB BKN030 
     BECMG 1712/1715 14005KT 
     TEMPO 1721/1803 4000 -SHRA BR
       
RJSF 170100Z 30004KT 260V340 9999 BR FEW005 SCT006 BKN008 21/20 Q1015
TAF RJSF 162307Z 1700/1806 36004KT 1500 BR FEW001 BKN003 
     BECMG 1700/1702 9999 NSW FEW010 BKN020 
     TEMPO 1703/1709 3000 TSRA BR FEW008 SCT015 BKN020 FEW020CB 
     BECMG 1707/1709 14006KT 
     TEMPO 1718/1721 4000 BR FEW005 BKN008 BKN015
       
ROTM 170059Z 09013G25KT 10SM BKN013 BKN018 OVC031 30/26 A2972 RMK AO2 T03000261
TAF ROTM 1621/1721 09012G25KT 9999 SCT015 BKN045 BKN100 QNH2963INS 
     TEMPO 1621/1622 9000 SHRA BR 
     BECMG 1710/1712 13016G28KT 8000 SHRA BR BKN010 OVC025 QNH2966INS 
     TEMPO 1718/1720 6000 +SHRA BR T28/1621Z T33/1704Z
       
RJNG 170025Z 28004KT 240V340 9999 FEW015 SCT025 BKN035 26/21 Q1013 RMK 2CU015 3CU025 5CU035 A2993
RJSH 170028Z 06005KT 020V100 3200 BCFG BR FEW001 SCT003 20/18 Q1014 RMK 2ST001 4ST003 A2995
RJCH 170100Z 15007KT 9999 FEW008 SCT020 BKN/// 21/18 Q1014
TAF RJCH 162310Z 1700/1806 14006KT 9999 FEW006 BKN015 
     TEMPO 1700/1706 FEW005 BKN008 
     TEMPO 1712/1718 FEW005 BKN008 
     TEMPO 1718/1800 4000 BR FEW003 BKN006 
     BECMG 1721/1800 22005KT
       
RJSI 170100Z VRB02KT 9999 FEW010 SCT020 BKN030 23/20 Q1014
RJOA 170100Z 12005KT 080V170 9999 FEW015 SCT025 BKN/// 26/19 Q1014
TAF RJOA 162305Z 1700/1806 17004KT 9999 FEW020 SCT040 
     BECMG 1715/1718 4000 -SHRA BR FEW003 SCT005 BKN008 
     TEMPO 1803/1806 1500 TSRA BR BCFG FEW000 SCT003 BKN005 FEW020CB
       
RJOF 170047Z 10007KT 060V130 9999 FEW020 BKN025 BKN070 27/22 Q1012 RMK 1CU020 5CU025 6AC070 A2991
RJAH 170100Z 02005KT 9999 FEW005 BKN006 OVC012 23/21 Q1014
TAF RJAH 162314Z 1700/1806 10008KT 3000 BR FEW003 BKN005 
     BECMG 1702/1704 9999 NSW FEW010 BKN030 
     BECMG 1709/1711 4000 BR FEW005 BKN008 
     TEMPO 1712/1721 1500 BR BCFG FEW003 BKN005 
     TEMPO 1721/1800 3000 BR FEW003 BKN005 
     BECMG 1800/1803 12004KT 9999 NSW FEW010 BKN015
       
ROIG 170100Z 06016KT 9999 VCSH SCT014 BKN040 30/28 Q1001
TAF ROIG 162316Z 1700/1806 07019KT 9999 FEW015 BKN025 
     TEMPO 1712/1718 11025G38KT 
     TEMPO 1718/1721 12027G40KT 4000 SHRA FEW005 BKN010 FEW020CB 
     BECMG 1721/1800 14025KT 
     TEMPO 1721/1803 14027G40KT 4000 SHRA FEW005 BKN010 FEW020CB 
     TEMPO 1803/1806 15027G44KT 2000 +TSRA FEW004 BKN008 BKN010 SCT020CB
       
RJOI 170055Z 09004KT 9999 FEW035 BKN120 BKN210 27/22 A2991 RMK SLP129 T02670222
TAF RJOI 1621/1721 32005KT 9999 FEW015 BKN025 BKN040 QNH2989INS 
     BECMG 1623/1701 06006KT 9999 SCT030 BKN280 QNH2986INS 
     FM170400 17008KT 9999 SCT030 BKN270 QNH2983INS 
     BECMG 1709/1710 VRB06KT 9999 FEW020 BKN030 BKN060 OVC240 621553 622402
QNH2982INS 
     TEMPO 1710/1716 -SHRA FEW020 BKN025 OVC060 
     FM171600 VRB05KT 8000 -SHRA BR FEW015 BKN025 BKN060 BKN150 OVC220 622204
QNH2983INS 
     FM172000 VRB04KT 4800 -SHRA BR FEW010 BKN020 BKN060 OVC120 622204
QNH2984INS T29/1706Z T24/1720Z
       
RJOW 170100Z 33005KT 290V360 9999 FEW020 BKN/// 25/22 Q1012
RJAW 170100Z 14012KT 9999 FEW010 BKN230 30/27 Q1013 RMK 1CU010 A2992
RJOC 170100Z 06007KT 9999 FEW020 SCT/// 27/20 Q1012
TAF RJOC 162309Z 1700/1806 04006KT 9999 FEW020 
     BECMG 1712/1715 17006KT 
     TEMPO 1715/1718 4000 SHRA BR 
     TEMPO 1718/1800 3000 SHRA BR FEW005 BKN008 BKN025 
     TEMPO 1800/1806 4000 SHRA BR FEW005 BKN008 BKN025
       
RODN 170056Z AUTO 06018G24KT 10SM FEW016 31/26 A2970 RMK AO2 PK WND 08030/35 SLP062 T03080260 $
TAF AMD RODN 170010Z 1700/1806 09018G25KT 9999 SCT015 QNH2960INS 
     BECMG 1709/1710 11025G30KT 9999 VCSH SCT015 SCT140 QNH2960INS 
     TEMPO 1714/1721 6000 -SHRA BKN015 
     BECMG 1801/1802 16025G35KT 8000 BR BKN025 OVC080 QNH2962INS TX33/1705Z
TN27/1718Z
       
RJFK 170100Z 12007KT 9999 FEW015 BKN/// 27/23 Q1013
TAF RJFK 162307Z 1700/1806 14006KT 9999 FEW010 BKN030
       
RJFY 162351Z 06007KT 8000 BKN012 BKN230 26/23 Q1012 RMK 5CU012 A2990
RJBB 170100Z 36005KT 9999 FEW010 27/22 Q1013 NOSIG
TAF RJBB 162306Z 1700/1806 02005KT 9999 FEW015 BKN035 
     BECMG 1701/1703 31006KT 
     BECMG 1705/1707 24015KT 
     BECMG 1712/1715 18005KT 
     BECMG 1718/1721 09005KT
       
RJTR 162216Z AUTO 00000KT 6SM -RA BR SCT012 SCT018 OVC033 21/20 A2995 RMK AO2 LTG DSNT SW RAB16 SLP142
RJKI 170100Z AUTO 09013KT 060V130 9999 SCT011 31/28 Q1009
RJTK 170024Z 33005KT 2500 -SHRA BR FEW003 BKN005 BKN008 22/21 Q1014 RMK 2ST003 5ST005 7ST008 A2996
RORK 170100Z AUTO 11019KT 9999 FEW011 //////CB 31/27 Q1008
RJFR 170100Z 11005KT 020V200 7000 FEW008 SCT015 BKN030 26/22 Q1012
TAF RJFR 162311Z 1700/1806 10010KT 9999 FEW008 SCT015 BKN030 
     TEMPO 1706/1709 3000 TSRA BR FEW005 SCT010 FEW020CB BKN030 
     BECMG 1707/1709 07011KT 
     TEMPO 1721/1806 3000 SHRA BR
       
RJOK 170100Z 17003KT 150V210 9999 FEW025 SCT050 27/21 Q1013
TAF RJOK 162309Z 1700/1806 18005KT 9999 FEW015 SCT030 BKN050 
     BECMG 1710/1712 01004KT 
     BECMG 1721/1800 14008KT 
     TEMPO 1803/1806 3000 TSRA BR FEW005 BKN008 BKN015 FEW020CB
       
RJNK 170100Z 31008KT 290V350 9999 FEW010 26/21 Q1013
TAF RJNK 162308Z 1700/1806 35008KT 9999 FEW020 SCT040 
     BECMG 1712/1715 15004KT 
     TEMPO 1803/1806 3000 SHRA BR FEW003 BKN005
       
RJFT 170100Z VRB02KT 9000 FEW040 BKN050 28/22 Q1012
TAF RJFT 162305Z 1700/1806 24004KT 8000 -SHRA FEW010 SCT020 BKN030 
     BECMG 1712/1715 07005KT 
     BECMG 1800/1803 27004KT
       
RJCK 170100Z 15007KT 0900 R17/0650V1000D FG -SHRA BKN001 BKN002 17/17 Q1016
TAF RJCK 162309Z 1700/1806 16010KT 7000 FEW003 BKN006 
     TEMPO 1700/1712 0700 -SHRA FG VV001 
     TEMPO 1712/1800 0500 -SHRA FG VV001 
     TEMPO 1800/1806 1500 -SHRA BR FEW001 BKN003
       
RJAF 170100Z 35004KT 300V070 9999 FEW030 25/18 Q1015
RJOM 170100Z 35005KT 9999 FEW030 BKN/// 26/23 Q1012
TAF RJOM 162305Z 1700/1806 35005KT 9999 FEW020 BKN060
       
RJCM 170100Z 16013KT 9999 FEW015 SCT/// 25/17 Q1014
TAF RJCM 162312Z 1700/1806 18015KT 9999 FEW020 BKN040
       
RJOH 170100Z 05010KT 9999 FEW010 SCT300 26/21 Q1013
TAF RJOH 162307Z 1700/1806 06012KT 9999 FEW020 
     TEMPO 1715/1718 4000 SHRA BR 
     BECMG 1715/1718 18006KT 
     TEMPO 1718/1800 3000 SHRA BR FEW005 BKN008 BKN025 
     TEMPO 1800/1806 4000 SHRA BR FEW005 BKN008 BKN025
       
ROMD 170100Z AUTO 11009KT 360V160 9999 TS FEW023 BKN031 BKN034 //////CB 29/27 Q1008
RJSM 170100Z 08006KT 4000 BR FEW001 BKN003 BKN008 18/18 Q1013
ROMY 170100Z 07018KT 9999 VCSH FEW014 SCT023 31/27 Q1002
RJFM 170100Z 03005KT 9999 FEW010 SCT015 BKN025 27/24 Q1012
TAF RJFM 162309Z 1700/1806 05005KT 9999 FEW010 SCT020 BKN030 
     TEMPO 1705/1708 4000 -TSRA BR FEW005 SCT020 FEW025CB BKN030 
     TEMPO 1708/1715 4000 BR 
     TEMPO 1715/1718 3000 SHRA BR FEW005 BKN008 BKN015 
     TEMPO 1718/1800 3000 TSRA BR FEW005 BKN008 BKN025 FEW025CB 
     TEMPO 1800/1806 4000 SHRA BR
       
RJEB 170100Z 06005KT 010V080 9999 FEW050 22/17 Q1013
RJFU 170100Z 14009KT 9000 FEW020 SCT035 BKN045 27/24 Q1011
TAF RJFU 162305Z 1700/1806 14005KT 8000 -SHRA FEW010 SCT020 BKN030 
     TEMPO 1701/1704 3000 TSRA BR FEW010 SCT020 BKN030 FEW030CB 
     BECMG 1703/1705 33005KT 
     BECMG 1709/1711 15004KT
       
ROAH 170100Z 09013KT 050V120 9999 VCSH SCT015 SCT020 31/26 Q1004 RMK 3CU015 4CU020 A2966
TAF ROAH 162311Z 1700/1806 11014KT 9999 FEW008 BKN015 
     TEMPO 1710/1718 13016G27KT 
     TEMPO 1718/1800 14018G30KT 4000 SHRA FEW005 BKN010 FEW020CB 
     TEMPO 1800/1806 14021G33KT 3000 TSRA FEW004 BKN008 BKN010 FEW020CB
       
RJCN 170100Z 18004KT 140V220 2000 R08/2000N -DZ BR FEW002 BKN003 BKN004 19/19 Q1016
RJBD 170100Z 17009KT 9999 FEW020 SCT045 BKN060 26/23 Q1013
RJCC 170100Z 19010KT 2000 R19R/P2000N R19L/P2000N -SHRA BR FEW002 BKN003 BKN004 19/19 Q1015
TAF RJCC 162305Z 1700/1806 17011KT 9999 FEW005 BKN015 
     TEMPO 1700/1702 1500 -SHRA BR FEW001 BKN003 
     TEMPO 1702/1709 4000 -SHRA BR FEW002 BKN005 
     TEMPO 1709/1715 1500 -SHRA BR FEW001 BKN003 
     TEMPO 1715/1800 0700 -SHRA FG VV001 
     TEMPO 1800/1803 3000 -SHRA BR FEW002 BKN005
       
RJAA 170100Z 36008KT 3200 -RA BR SCT003 BKN004 BKN006 22/21 Q1014 BECMG FM0200 6000 NSW FEW005 BKN008
TAF RJAA 162306Z 1700/1806 01006KT 4000 BR FEW005 BKN008 
     TEMPO 1700/1703 2000 BR FEW002 BKN003 
     BECMG 1703/1705 12008KT 9999 NSW FEW010 BKN020 
     BECMG 1712/1715 3000 BR FEW002 BKN005 
     BECMG 1800/1803 9999 NSW FEW010 BKN015
       
RJSN 170100Z 31008KT 9999 FEW010 SCT020 26/23 Q1013
TAF RJSN 162312Z 1700/1806 12006KT 9999 FEW030 
     BECMG 1700/1702 32010KT 
     BECMG 1712/1715 16006KT 
     BECMG 1800/1803 34006KT
       
RJCB 170100Z VRB02KT 9999 FEW004 BKN006 18/16 Q1016
TAF RJCB 162306Z 1700/1806 33005KT 9999 FEW008 BKN015 
     TEMPO 1700/1702 4000 -SHRA BR FEW003 BKN005 
     BECMG 1701/1703 15007KT 
     TEMPO 1702/1707 FEW005 BKN008 
     TEMPO 1707/1712 3000 BR FEW003 BKN005 
     TEMPO 1712/1800 0700 -SHRA FG VV001
       
RJSR 170100Z 21006KT 180V250 9999 FEW020 BKN030 26/20 Q1013
RJFO 170100Z 07003KT 350V130 8000 FEW009 SCT020 BKN025 24/23 Q1012
TAF RJFO 162306Z 1700/1806 08004KT 9000 FEW005 SCT010 BKN025 
     TEMPO 1700/1702 4000 BR FEW002 BKN006 BKN010 
     BECMG 1702/1704 16010KT 
     TEMPO 1715/1800 2000 BR FEW003 BKN006 BKN015 
     TEMPO 1800/1806 4000 -SHRA BR FEW003 BKN006 BKN015
       
RJOB 170100Z 18004KT 110V270 9999 FEW010 SCT015 BKN035 27/22 Q1013
TAF RJOB 162305Z 1700/1806 14005KT 9999 FEW020 
     BECMG 1715/1718 4000 -SHRA BR BCFG FEW000 BKN008 BKN025 
     TEMPO 1721/1803 3000 -SHRA BR BCFG FEW000 SCT003 BKN005 
     TEMPO 1803/1806 1500 TSRA BR BCFG FEW000 SCT003 BKN005 FEW020CB
       
RJOO 170100Z VRB02KT 9999 FEW020 SCT025 28/23 Q1012 RMK 1CU020 4CU025 A2991
TAF RJOO 162307Z 1700/1806 22007KT 9999 FEW025 BKN035 
     BECMG 1706/1708 28005KT 
     BECMG 1718/1721 07006KT
       
RJTO 170100Z 03006KT 9999 -SHRA FEW005 SCT008 BKN015 22/22 Q1015
RJOZ 170023Z 12006KT 9999 FEW010 SCT020 BKN030 26/23 Q1012 RMK 1ST010 4CU020 7CU030 A2989
RJFS 170100Z VRB01KT 7000 SCT050 BKN060 27/20 Q1011
TAF RJFS 162305Z 1700/1806 18005KT 8000 -SHRA FEW010 SCT020 BKN030 
     BECMG 1706/1708 28005KT 
     BECMG 1715/1718 02004KT
       
RJCO 170100Z 14015KT 9999 FEW015 SCT250 25/19 Q1013
RJSS 170100Z VRB02KT 9999 FEW005 BKN009 BKN015 22/20 Q1014
TAF RJSS 162307Z 1700/1806 34004KT 4000 -SHRA BR FEW005 BKN008 BKN015 
     TEMPO 1700/1702 1500 -SHRA BR FEW003 BKN005 BKN008 
     BECMG 1702/1704 12008KT 9999 NSW FEW008 BKN020 
     BECMG 1707/1709 4000 BR FEW005 BKN008 BKN015 
     TEMPO 1715/1800 1500 BR FEW001 BKN003 BKN005
       
RJTL 170049Z VRB02KT 8000 FEW005 SCT008 BKN015 23/21 Q1014 RMK 1ST005 4ST008 7CU015 A2995
RORS 170100Z 08019KT 9999 VCSH FEW015 SCT018 31/27 Q1002
RJNY 162316Z 27003KT 230V310 9999 FEW005 SCT150 BKN250 22/21 Q1014 RMK 1ST005 3AC150 A2994 1ST005 N
RJSY 170100Z 30003KT 220V360 9999 FEW010 SCT030 BKN040 25/21 Q1013
RJBT 170100Z VRB02KT 9999 FEW008 SCT015 26/22 Q1013
RJOT 170100Z 36005KT 330V110 9999 FEW030 28/23 Q1013
TAF RJOT 162306Z 1700/1806 06006KT 9999 FEW020 SCT045 
     TEMPO 1803/1806 4000 -TSRA BR FEW005 SCT015 BKN025 FEW025CB
       
RJFG 170100Z 11006KT 060V130 9999 FEW003 SCT006 BKN012 27/26 Q1012
RJTE 170034Z 03004KT 300V040 5000 BR FEW007 SCT015 BKN060 22/21 Q1014 RMK 1ST007 3CU015 5SC060 A2995
RJCT 170042Z VRB01KT 9999 SCT005 BKN007 19/17 Q1017 RMK 3ST005 7ST007 A3004
RJOS 170100Z 11005KT 9999 FEW020 26/23 Q1013
RJTT 170100Z 10003KT 5000 -RA BR FEW008 BKN017 BKN020 23/22 Q1014 NOSIG RMK 1ST008 5SC017 7SC020 A2996
TAF RJTT 162305Z 1700/1806 02004KT 9999 FEW020 
     BECMG 1700/1702 12006KT 
     BECMG 1706/1708 18010KT 
     BECMG 1712/1715 12004KT 
     TEMPO 1715/1800 FEW005 BKN008 
     BECMG 1800/1803 18012KT
       
RJOR 170100Z 01005KT 9999 FEW015 SCT/// 25/22 Q1013
RJNT 170100Z 36006KT 330V040 9999 SCT020 BKN070 27/21 Q1013
TAF RJNT 162309Z 1700/1806 36010KT 9999 FEW010 BKN030 
     BECMG 1712/1715 20004KT 
     BECMG 1800/1803 32005KT
       
RJDT 170100Z 09006KT 050V130 9999 FEW008 BKN010 23/21 Q1012
RJTU 162338Z VRB03KT 9999 FEW020 BKN035 25/20 Q1015 RMK 2CU020 5SC035 A2998
RJCW 170100Z 26005KT 210V350 9999 FEW025 SCT030 22/17 Q1013
RJSC 170100Z 00000KT 9999 FEW030 SCT040 BKN050 25/20 Q1014
RJDC 170100Z 10008KT 9999 FEW015 BKN070 BKN/// 26/24 Q1012
RJOY 170100Z 32003KT 260V030 9999 FEW015 BKN025 28/23 Q1012
RJTY 170056Z AUTO 10003KT 10SM SCT014 OVC033 24/19 A3001 RMK AO2 SLP161 T02350192 FZRANO $
TAF AMD RJTY 170050Z 1700/1803 VRB06KT 9999 SCT013 OVC034 QNH2995INS 
     TEMPO 1700/1703 BKN013 
     BECMG 1703/1704 16012KT 9999 SCT030 QNH2992INS 
     TEMPO 1704/1709 VCTS SCT030CB 
     BECMG 1714/1715 VRB02KT 6000 BR BKN003 OVC010 QNH2998INS TX28/1703Z
TN21/1722Z
       
ROYN 170100Z AUTO 06015KT 9999 FEW016 31/28 Q1002
RORY 170100Z AUTO 09016KT 9999 FEW010 SCT013 BKN015 31/27 Q1006